sensor_id;sensor_type;location;lat;lon;timestamp;temperature;humidity
76345;DHT22;65160;50.504;3.666;2023-03-19T00:01:51;11.20;87.25
76345;DHT22;65160;50.504;3.666;2023-03-19T00:04:16;11.17;86.85
76345;DHT22;65160;50.504;3.666;2023-03-19T00:06:42;11.15;87.25
76345;DHT22;65160;50.504;3.666;2023-03-19T00:09:08;11.13;87.46
76345;DHT22;65160;50.504;3.666;2023-03-19T00:11:33;11.10;87.31
76345;DHT22;65160;50.504;3.666;2023-03-19T00:13:59;11.07;87.41
76345;DHT22;65160;50.504;3.666;2023-03-19T00:16:25;11.09;87.37
76345;DHT22;65160;50.504;3.666;2023-03-19T00:18:51;11.10;87.57
76345;DHT22;65160;50.504;3.666;2023-03-19T00:21:16;11.13;87.39
76345;DHT22;65160;50.504;3.666;2023-03-19T00:23:42;11.12;87.29
76345;DHT22;65160;50.504;3.666;2023-03-19T00:26:07;11.13;86.92
76345;DHT22;65160;50.504;3.666;2023-03-19T00:28:33;11.15;87.11
76345;DHT22;65160;50.504;3.666;2023-03-19T00:31:10;11.16;87.24
76345;DHT22;65160;50.504;3.666;2023-03-19T00:33:36;11.12;87.21
76345;DHT22;65160;50.504;3.666;2023-03-19T00:36:03;11.03;87.50
76345;DHT22;65160;50.504;3.666;2023-03-19T00:38:30;11.10;87.55
76345;DHT22;65160;50.504;3.666;2023-03-19T00:40:55;11.12;87.58
76345;DHT22;65160;50.504;3.666;2023-03-19T00:43:21;11.06;87.39
76345;DHT22;65160;50.504;3.666;2023-03-19T00:45:47;11.05;87.58
76345;DHT22;65160;50.504;3.666;2023-03-19T00:48:13;10.97;87.94
76345;DHT22;65160;50.504;3.666;2023-03-19T00:50:38;10.93;88.34
76345;DHT22;65160;50.504;3.666;2023-03-19T00:53:04;10.93;88.46
76345;DHT22;65160;50.504;3.666;2023-03-19T00:55:30;10.96;88.68
76345;DHT22;65160;50.504;3.666;2023-03-19T00:57:55;10.92;88.74
76345;DHT22;65160;50.504;3.666;2023-03-19T01:00:21;10.96;88.85
76345;DHT22;65160;50.504;3.666;2023-03-19T01:02:46;10.93;88.98
76345;DHT22;65160;50.504;3.666;2023-03-19T01:05:12;10.91;89.17
76345;DHT22;65160;50.504;3.666;2023-03-19T01:07:38;10.92;89.36
76345;DHT22;65160;50.504;3.666;2023-03-19T01:10:04;10.92;89.32
76345;DHT22;65160;50.504;3.666;2023-03-19T01:12:30;10.89;89.60
76345;DHT22;65160;50.504;3.666;2023-03-19T01:14:56;10.95;89.57
76345;DHT22;65160;50.504;3.666;2023-03-19T01:17:21;10.93;89.37
76345;DHT22;65160;50.504;3.666;2023-03-19T01:19:48;10.92;89.56
76345;DHT22;65160;50.504;3.666;2023-03-19T01:22:13;10.96;89.51
76345;DHT22;65160;50.504;3.666;2023-03-19T01:24:41;10.99;89.49
76345;DHT22;65160;50.504;3.666;2023-03-19T01:27:07;10.99;89.35
76345;DHT22;65160;50.504;3.666;2023-03-19T01:29:32;11.03;89.24
76345;DHT22;65160;50.504;3.666;2023-03-19T01:31:58;11.02;89.19
76345;DHT22;65160;50.504;3.666;2023-03-19T01:34:23;11.00;89.32
76345;DHT22;65160;50.504;3.666;2023-03-19T01:36:49;11.02;89.30
76345;DHT22;65160;50.504;3.666;2023-03-19T01:39:14;11.06;89.21
76345;DHT22;65160;50.504;3.666;2023-03-19T01:41:40;11.03;89.09
76345;DHT22;65160;50.504;3.666;2023-03-19T01:44:26;11.06;89.07
76345;DHT22;65160;50.504;3.666;2023-03-19T01:46:52;11.07;89.11
76345;DHT22;65160;50.504;3.666;2023-03-19T01:49:19;11.07;89.02
76345;DHT22;65160;50.504;3.666;2023-03-19T01:51:46;11.06;89.10
76345;DHT22;65160;50.504;3.666;2023-03-19T01:54:18;11.06;89.17
76345;DHT22;65160;50.504;3.666;2023-03-19T01:56:47;11.05;89.14
76345;DHT22;65160;50.504;3.666;2023-03-19T01:59:37;11.05;89.13
76345;DHT22;65160;50.504;3.666;2023-03-19T02:02:26;11.02;89.16
76345;DHT22;65160;50.504;3.666;2023-03-19T02:04:57;11.00;89.37
76345;DHT22;65160;50.504;3.666;2023-03-19T02:07:25;11.00;89.47
76345;DHT22;65160;50.504;3.666;2023-03-19T02:09:52;11.02;89.42
76345;DHT22;65160;50.504;3.666;2023-03-19T02:12:18;11.03;89.08
76345;DHT22;65160;50.504;3.666;2023-03-19T02:14:43;10.96;88.73
76345;DHT22;65160;50.504;3.666;2023-03-19T02:17:09;10.92;88.51
76345;DHT22;65160;50.504;3.666;2023-03-19T02:22:35;10.73;88.95
76345;DHT22;65160;50.504;3.666;2023-03-19T02:25:05;10.67;89.19
76345;DHT22;65160;50.504;3.666;2023-03-19T02:27:34;10.61;89.23
76345;DHT22;65160;50.504;3.666;2023-03-19T02:29:59;10.52;89.45
76345;DHT22;65160;50.504;3.666;2023-03-19T02:32:25;10.50;89.50
76345;DHT22;65160;50.504;3.666;2023-03-19T02:34:51;10.38;89.59
76345;DHT22;65160;50.504;3.666;2023-03-19T02:37:20;10.36;89.74
76345;DHT22;65160;50.504;3.666;2023-03-19T02:40:09;10.25;89.94
76345;DHT22;65160;50.504;3.666;2023-03-19T02:42:35;10.20;90.06
76345;DHT22;65160;50.504;3.666;2023-03-19T02:45:01;10.12;90.12
76345;DHT22;65160;50.504;3.666;2023-03-19T02:47:26;10.10;89.99
76345;DHT22;65160;50.504;3.666;2023-03-19T02:49:52;10.07;90.00
76345;DHT22;65160;50.504;3.666;2023-03-19T02:52:18;10.02;90.00
76345;DHT22;65160;50.504;3.666;2023-03-19T02:54:43;9.99;90.21
76345;DHT22;65160;50.504;3.666;2023-03-19T02:57:09;9.89;90.28
76345;DHT22;65160;50.504;3.666;2023-03-19T02:59:35;9.83;90.39
76345;DHT22;65160;50.504;3.666;2023-03-19T03:02:00;9.78;90.64
76345;DHT22;65160;50.504;3.666;2023-03-19T03:04:26;9.75;90.65
76345;DHT22;65160;50.504;3.666;2023-03-19T03:06:51;9.76;90.32
76345;DHT22;65160;50.504;3.666;2023-03-19T03:09:17;9.71;90.56
76345;DHT22;65160;50.504;3.666;2023-03-19T03:11:43;9.61;90.69
76345;DHT22;65160;50.504;3.666;2023-03-19T03:14:09;9.57;90.91
76345;DHT22;65160;50.504;3.666;2023-03-19T03:16:35;9.58;91.01
76345;DHT22;65160;50.504;3.666;2023-03-19T03:19:02;9.52;91.10
76345;DHT22;65160;50.504;3.666;2023-03-19T03:21:28;9.55;91.11
76345;DHT22;65160;50.504;3.666;2023-03-19T03:23:53;9.51;91.14
76345;DHT22;65160;50.504;3.666;2023-03-19T03:26:19;9.51;91.20
76345;DHT22;65160;50.504;3.666;2023-03-19T03:28:45;9.51;91.13
76345;DHT22;65160;50.504;3.666;2023-03-19T03:31:10;9.48;90.88
76345;DHT22;65160;50.504;3.666;2023-03-19T03:33:36;9.42;91.04
76345;DHT22;65160;50.504;3.666;2023-03-19T03:36:02;9.35;91.13
76345;DHT22;65160;50.504;3.666;2023-03-19T03:38:27;9.37;90.80
76345;DHT22;65160;50.504;3.666;2023-03-19T03:40:53;9.32;90.77
76345;DHT22;65160;50.504;3.666;2023-03-19T03:43:19;9.32;90.64
76345;DHT22;65160;50.504;3.666;2023-03-19T03:45:46;9.24;90.58
76345;DHT22;65160;50.504;3.666;2023-03-19T03:48:12;9.20;90.75
76345;DHT22;65160;50.504;3.666;2023-03-19T03:50:38;9.17;90.87
76345;DHT22;65160;50.504;3.666;2023-03-19T03:53:04;9.20;90.78
76345;DHT22;65160;50.504;3.666;2023-03-19T03:55:29;9.13;90.76
76345;DHT22;65160;50.504;3.666;2023-03-19T03:57:56;9.13;90.84
76345;DHT22;65160;50.504;3.666;2023-03-19T04:00:22;9.00;90.84
76345;DHT22;65160;50.504;3.666;2023-03-19T04:02:48;9.00;91.05
76345;DHT22;65160;50.504;3.666;2023-03-19T04:05:14;9.03;91.07
76345;DHT22;65160;50.504;3.666;2023-03-19T04:07:40;9.00;91.11
76345;DHT22;65160;50.504;3.666;2023-03-19T04:10:07;8.93;91.14
76345;DHT22;65160;50.504;3.666;2023-03-19T04:12:34;8.90;91.19
76345;DHT22;65160;50.504;3.666;2023-03-19T04:15:02;8.83;91.45
76345;DHT22;65160;50.504;3.666;2023-03-19T04:17:28;8.77;91.58
76345;DHT22;65160;50.504;3.666;2023-03-19T04:19:53;8.80;91.60
76345;DHT22;65160;50.504;3.666;2023-03-19T04:22:19;8.83;91.35
76345;DHT22;65160;50.504;3.666;2023-03-19T04:24:45;8.83;90.96
76345;DHT22;65160;50.504;3.666;2023-03-19T04:27:11;8.79;90.68
76345;DHT22;65160;50.504;3.666;2023-03-19T04:29:36;8.76;90.49
76345;DHT22;65160;50.504;3.666;2023-03-19T04:32:01;8.79;90.50
76345;DHT22;65160;50.504;3.666;2023-03-19T04:34:27;8.82;90.16
76345;DHT22;65160;50.504;3.666;2023-03-19T04:36:52;8.72;90.20
76345;DHT22;65160;50.504;3.666;2023-03-19T04:39:18;8.66;90.23
76345;DHT22;65160;50.504;3.666;2023-03-19T04:41:44;8.66;89.69
76345;DHT22;65160;50.504;3.666;2023-03-19T04:44:09;8.71;89.32
76345;DHT22;65160;50.504;3.666;2023-03-19T04:46:35;8.72;88.90
76345;DHT22;65160;50.504;3.666;2023-03-19T04:49:01;8.71;89.16
76345;DHT22;65160;50.504;3.666;2023-03-19T04:51:27;8.75;88.86
76345;DHT22;65160;50.504;3.666;2023-03-19T04:53:52;8.65;88.87
76345;DHT22;65160;50.504;3.666;2023-03-19T04:56:19;8.62;89.03
76345;DHT22;65160;50.504;3.666;2023-03-19T04:58:45;8.58;89.07
76345;DHT22;65160;50.504;3.666;2023-03-19T05:01:10;8.49;89.37
76345;DHT22;65160;50.504;3.666;2023-03-19T05:03:36;8.45;89.51
76345;DHT22;65160;50.504;3.666;2023-03-19T05:06:01;8.35;89.60
76345;DHT22;65160;50.504;3.666;2023-03-19T05:08:27;8.26;89.86
76345;DHT22;65160;50.504;3.666;2023-03-19T05:10:53;8.21;90.28
76345;DHT22;65160;50.504;3.666;2023-03-19T05:13:18;8.14;90.24
76345;DHT22;65160;50.504;3.666;2023-03-19T05:15:44;8.11;90.41
76345;DHT22;65160;50.504;3.666;2023-03-19T05:18:11;8.07;90.79
76345;DHT22;65160;50.504;3.666;2023-03-19T05:20:37;8.01;91.01
76345;DHT22;65160;50.504;3.666;2023-03-19T05:23:03;7.93;90.84
76345;DHT22;65160;50.504;3.666;2023-03-19T05:25:28;7.91;91.07
76345;DHT22;65160;50.504;3.666;2023-03-19T05:27:54;7.90;91.21
76345;DHT22;65160;50.504;3.666;2023-03-19T05:30:20;7.90;91.44
76345;DHT22;65160;50.504;3.666;2023-03-19T05:32:48;7.89;91.65
76345;DHT22;65160;50.504;3.666;2023-03-19T05:35:14;7.87;91.72
76345;DHT22;65160;50.504;3.666;2023-03-19T05:37:41;7.91;91.86
76345;DHT22;65160;50.504;3.666;2023-03-19T05:40:07;7.89;91.90
76345;DHT22;65160;50.504;3.666;2023-03-19T05:42:33;7.76;91.51
76345;DHT22;65160;50.504;3.666;2023-03-19T05:44:58;7.62;91.23
76345;DHT22;65160;50.504;3.666;2023-03-19T05:47:24;7.54;91.31
76345;DHT22;65160;50.504;3.666;2023-03-19T05:49:49;7.42;91.29
76345;DHT22;65160;50.504;3.666;2023-03-19T05:52:15;7.41;91.38
76345;DHT22;65160;50.504;3.666;2023-03-19T05:54:41;7.42;91.67
76345;DHT22;65160;50.504;3.666;2023-03-19T05:57:06;7.52;92.11
76345;DHT22;65160;50.504;3.666;2023-03-19T05:59:32;7.50;91.79
76345;DHT22;65160;50.504;3.666;2023-03-19T06:01:58;7.40;91.67
76345;DHT22;65160;50.504;3.666;2023-03-19T06:04:24;7.34;91.17
76345;DHT22;65160;50.504;3.666;2023-03-19T06:06:50;7.36;91.60
76345;DHT22;65160;50.504;3.666;2023-03-19T06:09:15;7.52;92.25
76345;DHT22;65160;50.504;3.666;2023-03-19T06:11:41;7.55;92.31
76345;DHT22;65160;50.504;3.666;2023-03-19T06:14:07;7.52;92.18
76345;DHT22;65160;50.504;3.666;2023-03-19T06:16:32;7.42;91.76
76345;DHT22;65160;50.504;3.666;2023-03-19T06:18:58;7.58;92.18
76345;DHT22;65160;50.504;3.666;2023-03-19T06:21:23;7.59;92.38
76345;DHT22;65160;50.504;3.666;2023-03-19T06:23:55;7.54;92.15
76345;DHT22;65160;50.504;3.666;2023-03-19T06:26:21;7.51;92.33
76345;DHT22;65160;50.504;3.666;2023-03-19T06:28:46;7.69;92.48
76345;DHT22;65160;50.504;3.666;2023-03-19T06:31:12;7.71;92.17
76345;DHT22;65160;50.504;3.666;2023-03-19T06:33:37;7.72;91.99
76345;DHT22;65160;50.504;3.666;2023-03-19T06:36:03;7.79;91.98
76345;DHT22;65160;50.504;3.666;2023-03-19T06:38:28;7.93;92.24
76345;DHT22;65160;50.504;3.666;2023-03-19T06:40:54;8.00;92.07
76345;DHT22;65160;50.504;3.666;2023-03-19T06:43:19;8.09;91.81
76345;DHT22;65160;50.504;3.666;2023-03-19T06:45:45;8.07;91.34
76345;DHT22;65160;50.504;3.666;2023-03-19T06:48:11;8.09;91.03
76345;DHT22;65160;50.504;3.666;2023-03-19T06:50:36;8.03;90.94
76345;DHT22;65160;50.504;3.666;2023-03-19T06:53:02;8.10;91.32
76345;DHT22;65160;50.504;3.666;2023-03-19T06:55:27;8.14;91.08
76345;DHT22;65160;50.504;3.666;2023-03-19T06:57:55;8.16;91.10
76345;DHT22;65160;50.504;3.666;2023-03-19T07:00:21;8.28;91.26
76345;DHT22;65160;50.504;3.666;2023-03-19T07:02:47;8.34;91.03
76345;DHT22;65160;50.504;3.666;2023-03-19T07:05:13;8.44;91.13
76345;DHT22;65160;50.504;3.666;2023-03-19T07:07:39;8.56;91.05
76345;DHT22;65160;50.504;3.666;2023-03-19T07:10:05;8.59;91.09
76345;DHT22;65160;50.504;3.666;2023-03-19T07:12:30;8.72;91.04
76345;DHT22;65160;50.504;3.666;2023-03-19T07:14:56;8.93;90.60
76345;DHT22;65160;50.504;3.666;2023-03-19T07:17:22;9.17;90.11
76345;DHT22;65160;50.504;3.666;2023-03-19T07:19:48;9.34;89.83
76345;DHT22;65160;50.504;3.666;2023-03-19T07:22:14;9.30;89.83
76345;DHT22;65160;50.504;3.666;2023-03-19T07:24:40;9.23;89.53
76345;DHT22;65160;50.504;3.666;2023-03-19T07:27:05;9.27;89.54
76345;DHT22;65160;50.504;3.666;2023-03-19T07:29:31;9.37;89.40
76345;DHT22;65160;50.504;3.666;2023-03-19T07:31:57;9.49;89.03
76345;DHT22;65160;50.504;3.666;2023-03-19T07:34:22;9.63;89.03
76345;DHT22;65160;50.504;3.666;2023-03-19T07:36:48;10.00;88.58
76345;DHT22;65160;50.504;3.666;2023-03-19T07:39:14;10.25;87.82
76345;DHT22;65160;50.504;3.666;2023-03-19T07:41:39;10.57;87.33
76345;DHT22;65160;50.504;3.666;2023-03-19T07:44:06;10.69;85.31
76345;DHT22;65160;50.504;3.666;2023-03-19T07:46:31;10.72;85.44
76345;DHT22;65160;50.504;3.666;2023-03-19T07:48:57;10.71;85.37
76345;DHT22;65160;50.504;3.666;2023-03-19T07:51:22;10.76;84.27
76345;DHT22;65160;50.504;3.666;2023-03-19T07:53:48;10.82;84.44
76345;DHT22;65160;50.504;3.666;2023-03-19T07:56:13;10.89;84.93
76345;DHT22;65160;50.504;3.666;2023-03-19T07:58:39;10.85;82.81
76345;DHT22;65160;50.504;3.666;2023-03-19T08:01:05;10.61;82.89
76345;DHT22;65160;50.504;3.666;2023-03-19T08:03:31;10.52;84.06
76345;DHT22;65160;50.504;3.666;2023-03-19T08:05:57;10.51;84.17
76345;DHT22;65160;50.504;3.666;2023-03-19T08:08:23;10.47;84.53
76345;DHT22;65160;50.504;3.666;2023-03-19T08:10:48;10.62;83.75
76345;DHT22;65160;50.504;3.666;2023-03-19T08:13:15;10.72;83.51
76345;DHT22;65160;50.504;3.666;2023-03-19T08:15:40;10.79;82.83
76345;DHT22;65160;50.504;3.666;2023-03-19T08:18:06;10.80;82.63
76345;DHT22;65160;50.504;3.666;2023-03-19T08:20:32;10.97;82.13
76345;DHT22;65160;50.504;3.666;2023-03-19T08:22:57;11.00;82.48
76345;DHT22;65160;50.504;3.666;2023-03-19T08:25:24;10.85;82.02
76345;DHT22;65160;50.504;3.666;2023-03-19T08:27:50;10.69;83.52
76345;DHT22;65160;50.504;3.666;2023-03-19T08:30:16;10.59;83.82
76345;DHT22;65160;50.504;3.666;2023-03-19T08:32:42;10.50;83.76
76345;DHT22;65160;50.504;3.666;2023-03-19T08:35:10;10.44;84.62
76345;DHT22;65160;50.504;3.666;2023-03-19T08:37:36;10.45;84.51
76345;DHT22;65160;50.504;3.666;2023-03-19T08:40:02;10.25;83.59
76345;DHT22;65160;50.504;3.666;2023-03-19T08:42:29;10.14;84.41
76345;DHT22;65160;50.504;3.666;2023-03-19T08:44:54;10.12;83.90
76345;DHT22;65160;50.504;3.666;2023-03-19T08:47:20;9.99;84.15
76345;DHT22;65160;50.504;3.666;2023-03-19T08:49:49;9.99;84.53
76345;DHT22;65160;50.504;3.666;2023-03-19T08:52:15;10.02;84.37
76345;DHT22;65160;50.504;3.666;2023-03-19T08:54:40;10.13;84.10
76345;DHT22;65160;50.504;3.666;2023-03-19T08:57:06;9.99;84.03
76345;DHT22;65160;50.504;3.666;2023-03-19T08:59:31;10.04;85.44
76345;DHT22;65160;50.504;3.666;2023-03-19T09:01:57;10.16;84.91
76345;DHT22;65160;50.504;3.666;2023-03-19T09:04:22;10.09;84.98
76345;DHT22;65160;50.504;3.666;2023-03-19T09:06:48;10.12;85.10
76345;DHT22;65160;50.504;3.666;2023-03-19T09:09:21;10.00;85.48
76345;DHT22;65160;50.504;3.666;2023-03-19T09:11:48;9.65;86.85
76345;DHT22;65160;50.504;3.666;2023-03-19T09:14:14;9.57;87.73
76345;DHT22;65160;50.504;3.666;2023-03-19T09:16:41;9.49;88.09
76345;DHT22;65160;50.504;3.666;2023-03-19T09:19:07;9.45;88.57
76345;DHT22;65160;50.504;3.666;2023-03-19T09:21:35;9.49;88.74
76345;DHT22;65160;50.504;3.666;2023-03-19T09:24:01;9.45;88.14
76345;DHT22;65160;50.504;3.666;2023-03-19T09:26:27;9.47;88.49
76345;DHT22;65160;50.504;3.666;2023-03-19T09:28:52;9.47;88.26
76345;DHT22;65160;50.504;3.666;2023-03-19T09:31:17;9.49;88.39
76345;DHT22;65160;50.504;3.666;2023-03-19T09:33:43;9.58;88.60
76345;DHT22;65160;50.504;3.666;2023-03-19T09:36:08;9.69;88.32
76345;DHT22;65160;50.504;3.666;2023-03-19T09:38:34;9.79;87.80
76345;DHT22;65160;50.504;3.666;2023-03-19T09:41:09;9.87;87.30
76345;DHT22;65160;50.504;3.666;2023-03-19T09:44:03;9.99;87.04
76345;DHT22;65160;50.504;3.666;2023-03-19T09:46:49;10.10;86.83
76345;DHT22;65160;50.504;3.666;2023-03-19T09:49:26;10.31;86.86
76345;DHT22;65160;50.504;3.666;2023-03-19T09:56:51;10.06;86.81
76345;DHT22;65160;50.504;3.666;2023-03-19T09:59:17;10.04;86.81
76345;DHT22;65160;50.504;3.666;2023-03-19T10:01:50;10.12;87.55
76345;DHT22;65160;50.504;3.666;2023-03-19T10:07:39;9.89;87.14
76345;DHT22;65160;50.504;3.666;2023-03-19T10:10:25;9.89;87.35
76345;DHT22;65160;50.504;3.666;2023-03-19T10:15:29;9.89;87.42
76345;DHT22;65160;50.504;3.666;2023-03-19T10:18:06;9.93;87.38
76345;DHT22;65160;50.504;3.666;2023-03-19T10:25:54;10.48;86.52
76345;DHT22;65160;50.504;3.666;2023-03-19T10:28:21;10.73;85.40
76345;DHT22;65160;50.504;3.666;2023-03-19T10:36:34;10.61;85.53
76345;DHT22;65160;50.504;3.666;2023-03-19T10:38:59;10.51;86.84
76345;DHT22;65160;50.504;3.666;2023-03-19T10:44:30;10.62;87.64
76345;DHT22;65160;50.504;3.666;2023-03-19T10:47:09;10.71;87.99
76345;DHT22;65160;50.504;3.666;2023-03-19T10:49:36;10.62;87.67
76345;DHT22;65160;50.504;3.666;2023-03-19T10:52:02;10.68;88.04
76345;DHT22;65160;50.504;3.666;2023-03-19T10:54:28;10.78;88.01
76345;DHT22;65160;50.504;3.666;2023-03-19T10:56:57;10.76;87.39
76345;DHT22;65160;50.504;3.666;2023-03-19T10:59:44;10.85;88.06
76345;DHT22;65160;50.504;3.666;2023-03-19T11:02:20;10.97;88.92
76345;DHT22;65160;50.504;3.666;2023-03-19T11:04:46;11.19;88.53
76345;DHT22;65160;50.504;3.666;2023-03-19T11:07:16;11.22;87.27
76345;DHT22;65160;50.504;3.666;2023-03-19T11:09:44;11.16;86.95
76345;DHT22;65160;50.504;3.666;2023-03-19T11:14:50;11.06;87.39
76345;DHT22;65160;50.504;3.666;2023-03-19T11:17:27;11.07;86.79
76345;DHT22;65160;50.504;3.666;2023-03-19T11:19:57;11.27;86.36
76345;DHT22;65160;50.504;3.666;2023-03-19T11:22:29;11.27;84.40
76345;DHT22;65160;50.504;3.666;2023-03-19T11:25:12;11.27;84.22
76345;DHT22;65160;50.504;3.666;2023-03-19T11:27:39;11.34;85.34
76345;DHT22;65160;50.504;3.666;2023-03-19T11:30:17;11.37;85.12
76345;DHT22;65160;50.504;3.666;2023-03-19T11:35:37;11.65;86.43
76345;DHT22;65160;50.504;3.666;2023-03-19T11:38:17;11.62;83.27
76345;DHT22;65160;50.504;3.666;2023-03-19T11:41:14;11.64;83.61
76345;DHT22;65160;50.504;3.666;2023-03-19T11:46:45;11.61;85.06
76345;DHT22;65160;50.504;3.666;2023-03-19T11:52:00;11.51;83.65
76345;DHT22;65160;50.504;3.666;2023-03-19T11:57:39;11.40;84.42
76345;DHT22;65160;50.504;3.666;2023-03-19T12:00:26;11.41;84.30
76345;DHT22;65160;50.504;3.666;2023-03-19T12:08:48;11.62;83.40
76345;DHT22;65160;50.504;3.666;2023-03-19T12:14:11;11.78;82.53
76345;DHT22;65160;50.504;3.666;2023-03-19T12:30:56;10.21;85.60
76345;DHT22;65160;50.504;3.666;2023-03-19T12:36:02;9.90;87.21
76345;DHT22;65160;50.504;3.666;2023-03-19T12:38:38;9.92;87.64
76345;DHT22;65160;50.504;3.666;2023-03-19T12:41:21;9.96;87.45
76345;DHT22;65160;50.504;3.666;2023-03-19T12:44:07;10.03;86.59
76345;DHT22;65160;50.504;3.666;2023-03-19T12:46:55;10.00;85.91
76345;DHT22;65160;50.504;3.666;2023-03-19T12:49:41;10.09;86.18
76345;DHT22;65160;50.504;3.666;2023-03-19T12:52:25;10.25;86.12
76345;DHT22;65160;50.504;3.666;2023-03-19T12:55:01;10.55;85.87
76345;DHT22;65160;50.504;3.666;2023-03-19T12:57:38;10.51;84.89
76345;DHT22;65160;50.504;3.666;2023-03-19T13:00:18;10.57;84.86
76345;DHT22;65160;50.504;3.666;2023-03-19T13:05:40;10.62;84.86
76345;DHT22;65160;50.504;3.666;2023-03-19T13:10:52;10.41;83.74
76345;DHT22;65160;50.504;3.666;2023-03-19T13:13:48;10.38;84.34
76345;DHT22;65160;50.504;3.666;2023-03-19T13:19:41;10.37;84.15
76345;DHT22;65160;50.504;3.666;2023-03-19T13:22:14;10.40;84.32
76345;DHT22;65160;50.504;3.666;2023-03-19T13:24:42;10.47;84.51
76345;DHT22;65160;50.504;3.666;2023-03-19T13:27:26;10.52;83.57
76345;DHT22;65160;50.504;3.666;2023-03-19T13:30:11;10.50;83.61
76345;DHT22;65160;50.504;3.666;2023-03-19T13:32:47;10.50;83.57
76345;DHT22;65160;50.504;3.666;2023-03-19T13:35:26;10.54;83.09
76345;DHT22;65160;50.504;3.666;2023-03-19T13:40:46;10.55;83.67
76345;DHT22;65160;50.504;3.666;2023-03-19T13:48:35;10.12;84.85
76345;DHT22;65160;50.504;3.666;2023-03-19T13:51:04;10.10;84.82
76345;DHT22;65160;50.504;3.666;2023-03-19T13:56:02;9.83;85.08
76345;DHT22;65160;50.504;3.666;2023-03-19T13:58:29;9.59;85.12
76345;DHT22;65160;50.504;3.666;2023-03-19T14:03:58;9.52;85.44
76345;DHT22;65160;50.504;3.666;2023-03-19T14:06:44;9.55;85.94
76345;DHT22;65160;50.504;3.666;2023-03-19T14:09:40;9.61;86.02
76345;DHT22;65160;50.504;3.666;2023-03-19T14:12:37;9.68;85.17
76345;DHT22;65160;50.504;3.666;2023-03-19T14:26:18;9.75;82.94
76345;DHT22;65160;50.504;3.666;2023-03-19T14:36:43;9.58;82.01
76345;DHT22;65160;50.504;3.666;2023-03-19T14:39:24;9.66;82.48
76345;DHT22;65160;50.504;3.666;2023-03-19T14:41:59;9.72;81.93
76345;DHT22;65160;50.504;3.666;2023-03-19T14:44:35;9.66;82.52
76345;DHT22;65160;50.504;3.666;2023-03-19T14:47:13;9.68;82.00
76345;DHT22;65160;50.504;3.666;2023-03-19T14:49:55;9.61;82.13
76345;DHT22;65160;50.504;3.666;2023-03-19T14:52:31;9.48;82.27
76345;DHT22;65160;50.504;3.666;2023-03-19T14:57:33;9.45;82.55
76345;DHT22;65160;50.504;3.666;2023-03-19T14:59:59;9.38;82.33
76345;DHT22;65160;50.504;3.666;2023-03-19T15:05:00;9.20;82.84
76345;DHT22;65160;50.504;3.666;2023-03-19T15:07:32;9.20;82.45
76345;DHT22;65160;50.504;3.666;2023-03-19T15:10:00;9.24;82.87
76345;DHT22;65160;50.504;3.666;2023-03-19T15:12:43;9.31;82.87
76345;DHT22;65160;50.504;3.666;2023-03-19T15:18:09;9.42;81.47
76345;DHT22;65160;50.504;3.666;2023-03-19T15:20:43;9.45;81.42
76345;DHT22;65160;50.504;3.666;2023-03-19T15:23:11;9.62;81.33
76345;DHT22;65160;50.504;3.666;2023-03-19T15:26:03;9.58;80.50
76345;DHT22;65160;50.504;3.666;2023-03-19T15:28:42;9.58;80.50
76345;DHT22;65160;50.504;3.666;2023-03-19T15:31:08;9.63;81.09
76345;DHT22;65160;50.504;3.666;2023-03-19T15:33:36;9.74;81.17
76345;DHT22;65160;50.504;3.666;2023-03-19T15:36:06;9.76;80.20
76345;DHT22;65160;50.504;3.666;2023-03-19T15:38:44;9.87;80.67
76345;DHT22;65160;50.504;3.666;2023-03-19T15:41:10;9.86;80.70
76345;DHT22;65160;50.504;3.666;2023-03-19T15:43:38;9.97;79.01
76345;DHT22;65160;50.504;3.666;2023-03-19T15:46:07;9.96;79.10
76345;DHT22;65160;50.504;3.666;2023-03-19T15:48:45;9.97;79.39
76345;DHT22;65160;50.504;3.666;2023-03-19T15:51:13;9.95;79.00
76345;DHT22;65160;50.504;3.666;2023-03-19T15:53:40;9.90;78.44
76345;DHT22;65160;50.504;3.666;2023-03-19T15:56:06;9.85;79.60
76345;DHT22;65160;50.504;3.666;2023-03-19T15:58:38;9.79;79.22
76345;DHT22;65160;50.504;3.666;2023-03-19T16:01:06;9.79;79.39
76345;DHT22;65160;50.504;3.666;2023-03-19T16:03:45;9.61;79.08
76345;DHT22;65160;50.504;3.666;2023-03-19T16:06:22;9.51;79.44
76345;DHT22;65160;50.504;3.666;2023-03-19T16:08:51;9.47;80.04
76345;DHT22;65160;50.504;3.666;2023-03-19T16:11:33;9.45;80.05
76345;DHT22;65160;50.504;3.666;2023-03-19T16:14:40;9.42;79.42
76345;DHT22;65160;50.504;3.666;2023-03-19T16:17:13;9.40;79.22
76345;DHT22;65160;50.504;3.666;2023-03-19T16:19:59;9.45;79.10
76345;DHT22;65160;50.504;3.666;2023-03-19T16:22:30;9.48;79.09
76345;DHT22;65160;50.504;3.666;2023-03-19T16:24:57;9.45;79.68
76345;DHT22;65160;50.504;3.666;2023-03-19T16:29:58;9.41;79.56
76345;DHT22;65160;50.504;3.666;2023-03-19T16:32:26;9.45;79.93
76345;DHT22;65160;50.504;3.666;2023-03-19T16:34:52;9.51;80.31
76345;DHT22;65160;50.504;3.666;2023-03-19T16:40:02;9.44;80.00
76345;DHT22;65160;50.504;3.666;2023-03-19T16:45:01;9.48;79.76
76345;DHT22;65160;50.504;3.666;2023-03-19T16:47:27;9.51;78.25
76345;DHT22;65160;50.504;3.666;2023-03-19T16:49:53;9.45;78.16
76345;DHT22;65160;50.504;3.666;2023-03-19T16:52:23;9.40;78.55
76345;DHT22;65160;50.504;3.666;2023-03-19T16:54:49;9.32;78.69
76345;DHT22;65160;50.504;3.666;2023-03-19T16:57:16;9.27;78.32
76345;DHT22;65160;50.504;3.666;2023-03-19T16:59:43;9.34;78.76
76345;DHT22;65160;50.504;3.666;2023-03-19T17:02:16;9.31;78.63
76345;DHT22;65160;50.504;3.666;2023-03-19T17:04:42;9.23;77.94
76345;DHT22;65160;50.504;3.666;2023-03-19T17:07:09;9.27;77.50
76345;DHT22;65160;50.504;3.666;2023-03-19T17:09:35;9.35;77.53
76345;DHT22;65160;50.504;3.666;2023-03-19T17:12:02;9.38;77.37
76345;DHT22;65160;50.504;3.666;2023-03-19T17:14:28;9.45;77.34
76345;DHT22;65160;50.504;3.666;2023-03-19T17:16:55;9.51;78.16
76345;DHT22;65160;50.504;3.666;2023-03-19T17:19:32;9.61;77.73
76345;DHT22;65160;50.504;3.666;2023-03-19T17:21:58;9.63;76.95
76345;DHT22;65160;50.504;3.666;2023-03-19T17:24:26;9.65;77.05
76345;DHT22;65160;50.504;3.666;2023-03-19T17:26:53;9.45;76.83
76345;DHT22;65160;50.504;3.666;2023-03-19T17:29:19;9.28;77.29
76345;DHT22;65160;50.504;3.666;2023-03-19T17:31:45;9.16;77.39
76345;DHT22;65160;50.504;3.666;2023-03-19T17:34:17;9.03;77.70
76345;DHT22;65160;50.504;3.666;2023-03-19T17:37:12;8.87;78.31
76345;DHT22;65160;50.504;3.666;2023-03-19T17:39:39;8.83;78.62
76345;DHT22;65160;50.504;3.666;2023-03-19T17:42:17;8.77;78.21
76345;DHT22;65160;50.504;3.666;2023-03-19T17:44:44;8.73;78.10
76345;DHT22;65160;50.504;3.666;2023-03-19T17:47:10;8.72;79.55
76345;DHT22;65160;50.504;3.666;2023-03-19T17:49:36;8.62;78.71
76345;DHT22;65160;50.504;3.666;2023-03-19T17:52:02;8.59;79.32
76345;DHT22;65160;50.504;3.666;2023-03-19T17:54:27;8.55;79.85
76345;DHT22;65160;50.504;3.666;2023-03-19T17:56:54;8.48;79.54